createdAt,value
2023-03-17T00:01:38.188Z,98509.22
2023-03-17T00:04:06.188Z,98517.16
2023-03-17T00:06:33.917Z,98514.72
2023-03-17T00:09:00.553Z,98506.50
2023-03-17T00:11:27.857Z,98512.78
2023-03-17T00:13:54.715Z,98513.59
2023-03-17T00:16:27.282Z,98515.78
2023-03-17T00:18:55.110Z,98512.25
2023-03-17T00:21:30.741Z,98514.69
2023-03-17T00:23:59.616Z,98523.47
2023-03-17T00:26:27.859Z,98511.66
2023-03-17T00:28:55.357Z,98517.44
2023-03-17T00:31:29.478Z,98517.16
2023-03-17T00:33:57.153Z,98519.09
2023-03-17T00:36:28.422Z,98518.25
2023-03-17T00:38:55.774Z,98513.59
2023-03-17T00:41:22.776Z,98511.69
2023-03-17T00:43:50.727Z,98511.44
2023-03-17T00:46:38.163Z,98516.63
2023-03-17T00:49:19.504Z,98507.31
2023-03-17T00:51:47.446Z,98513.09
2023-03-17T00:54:14.538Z,98506.53
2023-03-17T00:56:42.568Z,98515.00
2023-03-17T00:59:20.836Z,98506.56
2023-03-17T01:01:49.304Z,98511.47
2023-03-17T01:04:16.373Z,98513.97
2023-03-17T01:06:43.343Z,98515.88
2023-03-17T01:09:14.776Z,98514.25
2023-03-17T01:11:42.722Z,98508.78
2023-03-17T01:14:11.172Z,98507.94
2023-03-17T01:16:38.798Z,98506.59
2023-03-17T01:19:05.965Z,98506.59
2023-03-17T01:21:32.813Z,98504.13
2023-03-17T01:24:00.537Z,98499.50
2023-03-17T01:26:27.450Z,98498.94
2023-03-17T01:28:54.766Z,98504.69
2023-03-17T01:31:21.467Z,98503.88
2023-03-17T01:33:48.069Z,98504.94
2023-03-17T01:36:15.726Z,98504.41
2023-03-17T01:38:42.362Z,98510.97
2023-03-17T01:41:09.235Z,98507.16
2023-03-17T01:43:36.683Z,98501.13
2023-03-17T01:46:36.696Z,98504.13
2023-03-17T01:49:31.551Z,98507.13
2023-03-17T01:52:15.599Z,98513.69
2023-03-17T01:54:50.421Z,98504.06
2023-03-17T01:57:25.471Z,98513.91
2023-03-17T02:00:08.170Z,98504.88
2023-03-17T02:02:38.280Z,98505.69
2023-03-17T02:05:09.518Z,98510.31
2023-03-17T02:07:37.861Z,98504.88
2023-03-17T02:10:06.432Z,98501.28
2023-03-17T02:12:35.720Z,98508.41
2023-03-17T02:15:03.347Z,98495.28
2023-03-17T02:17:30.035Z,98507.28
2023-03-17T02:19:57.058Z,98505.69
2023-03-17T02:22:24.071Z,98507.31
2023-03-17T02:24:57.828Z,98500.81
2023-03-17T02:27:31.295Z,98494.53
2023-03-17T02:29:58.266Z,98500.25
2023-03-17T02:32:25.606Z,98495.09
2023-03-17T02:34:52.257Z,98499.50
2023-03-17T02:37:20.243Z,98492.94
2023-03-17T02:39:46.900Z,98485.81
2023-03-17T02:42:14.089Z,98480.91
2023-03-17T02:44:40.976Z,98487.72
2023-03-17T02:47:08.643Z,98485.81
2023-03-17T02:49:37.383Z,98470.22
2023-03-17T02:52:04.896Z,98475.44
2023-03-17T02:54:31.914Z,98473.22
2023-03-17T02:56:59.162Z,98475.97
2023-03-17T02:59:26.657Z,98480.06
2023-03-17T03:01:53.887Z,98482.78
2023-03-17T03:04:21.063Z,98495.94
2023-03-17T03:06:48.328Z,98479.25
2023-03-17T03:09:15.432Z,98481.44
2023-03-17T03:11:42.883Z,98486.91
2023-03-17T03:14:11.140Z,98474.06
2023-03-17T03:16:38.436Z,98479.81
2023-03-17T03:19:05.415Z,98466.66
2023-03-17T03:21:32.282Z,98475.44
2023-03-17T03:23:58.962Z,98466.13
2023-03-17T03:26:25.693Z,98474.06
2023-03-17T03:28:52.334Z,98481.16
2023-03-17T03:31:18.943Z,98475.41
2023-03-17T03:33:46.078Z,98479.25
2023-03-17T03:36:13.471Z,98487.47
2023-03-17T03:38:40.176Z,98488.28
2023-03-17T03:41:07.361Z,98494.56
2023-03-17T03:43:35.030Z,98483.09
2023-03-17T03:46:04.028Z,98481.44
2023-03-17T03:48:30.870Z,98486.06
2023-03-17T03:51:02.084Z,98487.16
2023-03-17T03:53:29.410Z,98490.47
2023-03-17T03:55:56.555Z,98489.94
2023-03-17T03:58:23.544Z,98492.38
2023-03-17T04:00:50.436Z,98487.44
2023-03-17T04:03:17.286Z,98485.53
2023-03-17T04:05:43.946Z,98481.72
2023-03-17T04:08:11.430Z,98476.50
2023-03-17T04:10:38.284Z,98465.84
2023-03-17T04:13:05.150Z,98460.09
2023-03-17T04:15:31.753Z,98468.59
2023-03-17T04:17:58.408Z,98475.16
2023-03-17T04:20:25.053Z,98473.75
2023-03-17T04:22:51.818Z,98481.97
2023-03-17T04:25:18.721Z,98483.06
2023-03-17T04:27:45.413Z,98489.09
2023-03-17T04:30:16.959Z,98491.56
2023-03-17T04:32:44.557Z,98492.63
2023-03-17T04:35:16.809Z,98486.63
2023-03-17T04:37:44.134Z,98480.34
2023-03-17T04:40:12.998Z,98480.91
2023-03-17T04:42:40.560Z,98472.91
2023-03-17T04:45:09.488Z,98486.56
2023-03-17T04:47:36.160Z,98489.31
2023-03-17T04:50:03.852Z,98489.59
2023-03-17T04:52:31.154Z,98496.69
2023-03-17T04:54:57.817Z,98495.03
2023-03-17T04:57:24.608Z,98481.09
2023-03-17T04:59:51.793Z,98487.63
2023-03-17T05:02:19.468Z,98485.75
2023-03-17T05:04:47.828Z,98490.63
2023-03-17T05:07:15.090Z,98494.47
2023-03-17T05:09:42.026Z,98495.28
2023-03-17T05:12:09.953Z,98496.66
2023-03-17T05:14:37.265Z,98504.31
2023-03-17T05:17:03.986Z,98493.38
2023-03-17T05:19:30.764Z,98495.03
2023-03-17T05:21:57.424Z,98481.63
2023-03-17T05:24:24.019Z,98493.94
2023-03-17T05:26:50.697Z,98481.09
2023-03-17T05:29:17.354Z,98483.53
2023-03-17T05:31:44.397Z,98478.59
2023-03-17T05:34:11.794Z,98479.97
2023-03-17T05:36:38.603Z,98499.34
2023-03-17T05:39:05.319Z,98490.91
2023-03-17T05:41:32.063Z,98475.34
2023-03-17T05:43:58.745Z,98478.59
2023-03-17T05:46:26.619Z,98485.97
2023-03-17T05:48:53.316Z,98494.44
2023-03-17T05:51:20.540Z,98486.25
2023-03-17T05:53:47.303Z,98489.50
2023-03-17T05:56:14.765Z,98497.69
2023-03-17T05:58:41.672Z,98497.69
2023-03-17T06:01:08.288Z,98513.78
2023-03-17T06:03:34.974Z,98522.56
2023-03-17T06:06:01.676Z,98511.88
2023-03-17T06:08:28.293Z,98515.72
2023-03-17T06:10:54.979Z,98508.09
2023-03-17T06:13:21.600Z,98513.56
2023-03-17T06:15:51.446Z,98515.19
2023-03-17T06:18:19.823Z,98522.81
2023-03-17T06:20:46.935Z,98527.72
2023-03-17T06:23:13.803Z,98526.31
2023-03-17T06:25:40.533Z,98518.69
2023-03-17T06:28:07.193Z,98512.66
2023-03-17T06:30:35.713Z,98524.94
2023-03-17T06:33:04.070Z,98541.84
2023-03-17T06:35:32.077Z,98545.13
2023-03-17T06:37:58.995Z,98541.34
2023-03-17T06:40:26.240Z,98532.28
2023-03-17T06:42:53.698Z,98530.44
2023-03-17T06:45:20.559Z,98530.44
2023-03-17T06:47:47.173Z,98544.63
2023-03-17T06:50:14.165Z,98550.38
2023-03-17T06:52:40.981Z,98540.81
2023-03-17T06:55:08.640Z,98537.56
2023-03-17T06:57:35.845Z,98538.66
2023-03-17T07:00:05.158Z,98534.53
2023-03-17T07:02:34.013Z,98534.28
2023-03-17T07:05:01.380Z,98544.66
2023-03-17T07:07:28.496Z,98542.22
2023-03-17T07:09:55.439Z,98537.56
2023-03-17T07:12:22.035Z,98540.28
2023-03-17T07:14:48.653Z,98543.31
2023-03-17T07:17:15.334Z,98540.88
2023-03-17T07:19:42.489Z,98528.84
2023-03-17T07:22:12.197Z,98528.34
2023-03-17T07:24:39.686Z,98532.69
2023-03-17T07:27:06.423Z,98529.41
2023-03-17T07:29:34.044Z,98541.44
2023-03-17T07:32:02.136Z,98539.78
2023-03-17T07:34:29.429Z,98539.25
2023-03-17T07:36:56.052Z,98555.34
2023-03-17T07:39:22.710Z,98557.78
2023-03-17T07:41:55.125Z,98557.78
2023-03-17T07:44:23.148Z,98566.81
2023-03-17T07:46:51.592Z,98574.78
2023-03-17T07:49:34.039Z,98574.28
2023-03-17T07:52:05.830Z,98574.28
2023-03-17T07:54:32.671Z,98576.50
2023-03-17T07:56:59.444Z,98581.44
2023-03-17T07:59:27.623Z,98582.84
2023-03-17T08:01:54.824Z,98580.41
2023-03-17T08:04:21.490Z,98578.22
2023-03-17T08:06:48.168Z,98581.53
2023-03-17T08:09:15.038Z,98577.97
2023-03-17T08:11:41.762Z,98579.06
2023-03-17T08:14:09.531Z,98579.06
2023-03-17T08:16:36.329Z,98571.69
2023-03-17T08:19:04.238Z,98575.81
2023-03-17T08:21:31.048Z,98576.34
2023-03-17T08:23:57.741Z,98574.97
2023-03-17T08:26:24.702Z,98565.38
2023-03-17T08:28:51.414Z,98566.22
2023-03-17T08:31:20.336Z,98561.56
2023-03-17T08:33:53.152Z,98558.53
2023-03-17T08:36:21.453Z,98551.97
2023-03-17T08:38:48.752Z,98562.34
2023-03-17T08:41:21.926Z,98561.47
2023-03-17T08:43:48.854Z,98571.56
2023-03-17T08:46:24.762Z,98588.50
2023-03-17T08:48:54.204Z,98586.31
2023-03-17T08:51:24.492Z,98578.84
2023-03-17T08:53:52.794Z,98578.84
2023-03-17T08:56:19.891Z,98579.91
2023-03-17T08:58:48.912Z,98573.94
2023-03-17T09:01:16.730Z,98574.22
2023-03-17T09:03:44.108Z,98574.53
2023-03-17T09:06:12.413Z,98569.91
2023-03-17T09:08:45.333Z,98578.63
2023-03-17T09:11:16.626Z,98568.75
2023-03-17T09:13:44.333Z,98575.84
2023-03-17T09:16:11.041Z,98568.41
2023-03-17T09:18:38.222Z,98567.00
2023-03-17T09:21:05.906Z,98572.19
2023-03-17T09:23:33.680Z,98571.63
2023-03-17T09:26:01.233Z,98564.78
2023-03-17T09:28:29.120Z,98561.44
2023-03-17T09:30:59.750Z,98554.31
2023-03-17T09:33:27.222Z,98564.91
2023-03-17T09:35:56.944Z,98562.13
2023-03-17T09:38:25.933Z,98558.25
2023-03-17T09:41:23.888Z,98552.97
2023-03-17T09:44:29.415Z,98560.56
2023-03-17T09:46:56.031Z,98557.13
2023-03-17T09:49:28.888Z,98553.16
2023-03-17T09:51:56.181Z,98553.41
2023-03-17T09:54:34.056Z,98565.13
2023-03-17T09:57:06.194Z,98556.19
2023-03-17T09:59:36.883Z,98558.06
2023-03-17T10:02:16.585Z,98562.84
2023-03-17T10:04:45.018Z,98570.47
2023-03-17T10:07:16.998Z,98565.88
2023-03-17T10:09:53.638Z,98573.56
2023-03-17T10:12:39.578Z,98578.94
2023-03-17T10:15:18.483Z,98581.03
2023-03-17T10:17:46.205Z,98574.97
2023-03-17T10:20:21.765Z,98574.38
2023-03-17T10:22:54.799Z,98573.81
2023-03-17T10:25:22.601Z,98574.72
2023-03-17T10:28:21.938Z,98583.34
2023-03-17T10:30:48.765Z,98589.91
2023-03-17T10:33:16.134Z,98588.84
2023-03-17T10:35:44.905Z,98595.53
2023-03-17T10:38:19.514Z,98597.72
2023-03-17T10:40:54.669Z,98595.91
2023-03-17T10:43:22.281Z,98597.00
2023-03-17T10:46:04.353Z,98587.34
2023-03-17T10:48:36.837Z,98597.78
2023-03-17T10:51:22.300Z,98583.66
2023-03-17T10:53:54.233Z,98583.34
2023-03-17T10:56:27.416Z,98585.75
2023-03-17T10:58:55.633Z,98586.63
2023-03-17T11:01:29.794Z,98583.59
2023-03-17T11:03:58.629Z,98590.44
2023-03-17T11:06:42.021Z,98587.25
2023-03-17T11:09:16.884Z,98588.44
2023-03-17T11:11:48.843Z,98591.13
2023-03-17T11:14:19.705Z,98578.41
2023-03-17T11:16:55.809Z,98575.94
2023-03-17T11:19:37.490Z,98580.94
2023-03-17T11:22:13.492Z,98579.81
2023-03-17T11:25:11.920Z,98577.44
2023-03-17T11:27:55.499Z,98579.28
2023-03-17T11:30:37.679Z,98579.75
2023-03-17T11:33:17.350Z,98573.63
2023-03-17T11:36:04.035Z,98576.38
2023-03-17T11:38:37.342Z,98570.22
2023-03-17T11:41:04.980Z,98573.72
2023-03-17T11:43:53.034Z,98578.13
2023-03-17T11:46:31.475Z,98570.44
2023-03-17T11:49:18.904Z,98567.78
2023-03-17T11:51:52.169Z,98567.03
2023-03-17T11:54:24.802Z,98573.66
2023-03-17T11:56:56.824Z,98566.28
2023-03-17T11:59:36.300Z,98574.41
2023-03-17T12:02:07.134Z,98566.66
2023-03-17T12:04:39.275Z,98570.75
2023-03-17T12:07:26.666Z,98570.00
2023-03-17T12:10:06.165Z,98565.75
2023-03-17T12:12:42.997Z,98564.41
2023-03-17T12:15:14.817Z,98566.53
2023-03-17T12:18:27.071Z,98562.66
2023-03-17T12:21:36.640Z,98566.38
2023-03-17T12:24:20.121Z,98551.25
2023-03-17T12:27:20.686Z,98560.69
2023-03-17T12:29:53.350Z,98559.66
2023-03-17T12:32:37.031Z,98559.66
2023-03-17T12:35:26.312Z,98558.84
2023-03-17T12:37:54.658Z,98552.75
2023-03-17T12:40:33.710Z,98552.84
2023-03-17T12:43:15.806Z,98551.13
2023-03-17T12:46:36.341Z,98549.28
2023-03-17T12:49:30.554Z,98552.44
2023-03-17T12:52:17.149Z,98543.69
2023-03-17T12:54:49.178Z,98538.56
2023-03-17T12:57:21.452Z,98532.53
2023-03-17T12:59:56.572Z,98528.44
2023-03-17T13:02:28.937Z,98519.78
2023-03-17T13:05:00.705Z,98521.31
2023-03-17T13:07:34.497Z,98523.47
2023-03-17T13:10:02.075Z,98520.88
2023-03-17T13:12:40.542Z,98528.25
2023-03-17T13:15:25.670Z,98531.53
2023-03-17T13:18:12.253Z,98524.06
2023-03-17T13:20:53.836Z,98523.75
2023-03-17T13:23:22.081Z,98511.31
2023-03-17T13:25:55.488Z,98517.41
2023-03-17T13:28:34.808Z,98513.47
2023-03-17T13:31:32.142Z,98504.16
2023-03-17T13:34:16.547Z,98510.50
2023-03-17T13:36:56.038Z,98499.34
2023-03-17T13:39:53.543Z,98502.50
2023-03-17T13:42:43.370Z,98493.31
2023-03-17T13:45:22.105Z,98489.03
2023-03-17T13:47:52.422Z,98483.63
2023-03-17T13:50:22.164Z,98480.16
2023-03-17T13:52:56.228Z,98478.94
2023-03-17T13:55:23.762Z,98475.56
2023-03-17T13:58:22.525Z,98468.84
2023-03-17T14:00:57.939Z,98464.13
2023-03-17T14:03:44.699Z,98463.31
2023-03-17T14:06:12.928Z,98464.56
2023-03-17T14:08:44.458Z,98465.16
2023-03-17T14:11:29.008Z,98459.63
2023-03-17T14:14:06.058Z,98460.75
2023-03-17T14:16:37.560Z,98463.28
2023-03-17T14:19:31.204Z,98462.09
2023-03-17T14:22:21.375Z,98460.03
2023-03-17T14:24:52.534Z,98468.00
2023-03-17T14:27:19.947Z,98461.47
2023-03-17T14:29:47.448Z,98469.34
2023-03-17T14:32:17.647Z,98461.16
2023-03-17T14:34:54.412Z,98461.66
2023-03-17T14:37:20.982Z,98456.34
2023-03-17T14:39:52.248Z,98455.84
2023-03-17T14:42:26.417Z,98440.22
2023-03-17T14:45:06.693Z,98446.97
2023-03-17T14:47:43.467Z,98440.22
2023-03-17T14:50:18.151Z,98446.06
2023-03-17T14:52:44.931Z,98436.16
2023-03-17T14:55:15.575Z,98439.22
2023-03-17T14:57:42.848Z,98439.31
2023-03-17T15:00:32.011Z,98445.75
2023-03-17T15:03:00.551Z,98447.00
2023-03-17T15:05:39.948Z,98442.19
2023-03-17T15:08:43.289Z,98449.44
2023-03-17T15:11:25.811Z,98444.91
2023-03-17T15:14:13.732Z,98441.66
2023-03-17T15:16:50.057Z,98440.84
2023-03-17T15:19:24.055Z,98445.84
2023-03-17T15:21:50.840Z,98449.00
2023-03-17T15:24:33.121Z,98449.72
2023-03-17T15:27:05.591Z,98445.91
2023-03-17T15:29:32.439Z,98443.16
2023-03-17T15:32:15.335Z,98447.25
2023-03-17T15:34:42.526Z,98451.03
2023-03-17T15:37:17.624Z,98444.28
2023-03-17T15:39:44.303Z,98453.97
2023-03-17T15:42:11.079Z,98450.84
2023-03-17T15:44:37.717Z,98455.53
2023-03-17T15:47:04.455Z,98453.88
2023-03-17T15:49:31.197Z,98458.41
2023-03-17T15:51:57.865Z,98450.88
2023-03-17T15:54:24.507Z,98449.84
2023-03-17T15:56:52.110Z,98454.03
2023-03-17T15:59:18.754Z,98459.97
2023-03-17T16:01:45.652Z,98457.09
2023-03-17T16:04:12.802Z,98455.25
2023-03-17T16:06:40.456Z,98458.72
2023-03-17T16:09:15.070Z,98454.72
2023-03-17T16:11:41.703Z,98459.22
2023-03-17T16:14:10.306Z,98460.19
2023-03-17T16:16:39.786Z,98460.28
2023-03-17T16:19:10.264Z,98461.84
2023-03-17T16:21:37.373Z,98473.00
2023-03-17T16:24:04.196Z,98464.84
2023-03-17T16:26:31.123Z,98477.44
2023-03-17T16:28:58.304Z,98474.44
2023-03-17T16:31:29.452Z,98484.50
2023-03-17T16:33:56.832Z,98480.34
2023-03-17T16:36:24.607Z,98482.50
2023-03-17T16:38:52.765Z,98481.72
2023-03-17T16:41:22.755Z,98474.84
2023-03-17T16:43:52.164Z,98485.84
2023-03-17T16:46:20.381Z,98481.72
2023-03-17T16:48:49.879Z,98484.22
2023-03-17T16:51:16.922Z,98488.28
2023-03-17T16:53:44.150Z,98482.84
2023-03-17T16:56:18.012Z,98490.28
2023-03-17T16:58:47.466Z,98483.75
2023-03-17T17:01:17.922Z,98498.84
2023-03-17T17:03:44.671Z,98489.25
2023-03-17T17:06:14.342Z,98491.25
2023-03-17T17:08:45.348Z,98492.66
2023-03-17T17:11:13.878Z,98486.66
2023-03-17T17:13:45.484Z,98487.00
2023-03-17T17:16:27.650Z,98483.28
2023-03-17T17:18:54.842Z,98496.22
2023-03-17T17:21:21.625Z,98496.59
2023-03-17T17:23:48.418Z,98491.41
2023-03-17T17:26:15.433Z,98505.16
2023-03-17T17:28:42.093Z,98499.03
2023-03-17T17:31:09.123Z,98502.31
2023-03-17T17:33:36.955Z,98496.81
2023-03-17T17:36:06.553Z,98503.13
2023-03-17T17:38:33.363Z,98509.53
2023-03-17T17:41:05.876Z,98509.88
2023-03-17T17:43:32.850Z,98515.97
2023-03-17T17:45:59.566Z,98520.44
2023-03-17T17:48:27.280Z,98516.91
2023-03-17T17:50:56.131Z,98528.56
2023-03-17T17:53:22.793Z,98518.78
2023-03-17T17:55:50.063Z,98516.09
2023-03-17T17:58:20.424Z,98520.31
2023-03-17T18:00:47.349Z,98520.59
2023-03-17T18:03:14.005Z,98523.72
2023-03-17T18:05:40.738Z,98527.06
2023-03-17T18:08:07.765Z,98530.44
2023-03-17T18:10:34.958Z,98530.94
2023-03-17T18:13:01.807Z,98527.44
2023-03-17T18:15:28.980Z,98531.31
2023-03-17T18:17:57.819Z,98530.81
2023-03-17T18:20:25.796Z,98540.97
2023-03-17T18:22:52.910Z,98536.91
2023-03-17T18:25:20.317Z,98542.75
2023-03-17T18:27:47.820Z,98541.91
2023-03-17T18:30:26.395Z,98553.19
2023-03-17T18:32:57.301Z,98549.38
2023-03-17T18:35:27.174Z,98544.47
2023-03-17T18:37:55.430Z,98549.69
2023-03-17T18:40:24.151Z,98547.53
2023-03-17T18:42:53.724Z,98551.91
2023-03-17T18:45:20.449Z,98550.84
2023-03-17T18:47:47.065Z,98562.13
2023-03-17T18:50:15.581Z,98551.44
2023-03-17T18:52:43.810Z,98556.63
2023-03-17T18:55:13.006Z,98552.31
2023-03-17T18:57:42.557Z,98563.53
2023-03-17T19:00:11.933Z,98552.25
2023-03-17T19:02:39.919Z,98558.03
2023-03-17T19:05:07.601Z,98558.56
2023-03-17T19:07:34.769Z,98554.75
2023-03-17T19:10:01.499Z,98553.38
2023-03-17T19:12:28.730Z,98558.56
2023-03-17T19:14:56.952Z,98556.13
2023-03-17T19:17:23.841Z,98552.00
2023-03-17T19:19:50.851Z,98562.97
2023-03-17T19:22:17.980Z,98559.41
2023-03-17T19:24:45.781Z,98563.53
2023-03-17T19:27:12.403Z,98564.63
2023-03-17T19:29:39.041Z,98570.13
2023-03-17T19:32:06.493Z,98568.47
2023-03-17T19:34:33.197Z,98569.28
2023-03-17T19:37:02.516Z,98570.66
2023-03-17T19:39:31.722Z,98572.81
2023-03-17T19:41:59.354Z,98573.94
2023-03-17T19:44:26.377Z,98577.75
2023-03-17T19:46:53.248Z,98573.69
2023-03-17T19:49:21.201Z,98570.13
2023-03-17T19:51:49.128Z,98573.44
2023-03-17T19:54:16.595Z,98577.53
2023-03-17T19:56:43.191Z,98576.44
2023-03-17T19:59:09.777Z,98579.44
2023-03-17T20:01:38.022Z,98579.47
2023-03-17T20:04:06.976Z,98571.81
2023-03-17T20:06:34.677Z,98576.75
2023-03-17T20:09:03.955Z,98585.53
2023-03-17T20:11:33.997Z,98584.72
2023-03-17T20:14:04.542Z,98582.25
2023-03-17T20:16:33.747Z,98581.44
2023-03-17T20:19:01.591Z,98585.28
2023-03-17T20:21:28.800Z,98594.06
2023-03-17T20:23:56.405Z,98587.25
2023-03-17T20:26:24.540Z,98599.84
2023-03-17T20:28:51.696Z,98600.38
2023-03-17T20:31:18.695Z,98601.47
2023-03-17T20:33:45.366Z,98608.59
2023-03-17T20:36:12.956Z,98603.66
2023-03-17T20:38:40.105Z,98615.72
2023-03-17T20:41:12.813Z,98610.81
2023-03-17T20:43:40.388Z,98610.81
2023-03-17T20:46:09.129Z,98605.03
2023-03-17T20:48:37.297Z,98608.63
2023-03-17T20:51:06.295Z,98615.75
2023-03-17T20:53:34.506Z,98616.06
2023-03-17T20:56:01.160Z,98608.38
2023-03-17T20:58:31.505Z,98615.25
2023-03-17T21:00:58.557Z,98611.94
2023-03-17T21:03:25.381Z,98612.50
2023-03-17T21:05:53.500Z,98611.69
2023-03-17T21:08:20.311Z,98616.34
2023-03-17T21:10:48.027Z,98617.44
2023-03-17T21:13:14.755Z,98613.06
2023-03-17T21:15:42.494Z,98615.25
2023-03-17T21:18:10.147Z,98619.09
2023-03-17T21:20:37.617Z,98625.97
2023-03-17T21:23:07.748Z,98625.97
2023-03-17T21:25:36.295Z,98630.88
2023-03-17T21:28:05.100Z,98621.31
2023-03-17T21:30:32.636Z,98620.75
2023-03-17T21:33:00.910Z,98622.66
2023-03-17T21:35:30.479Z,98624.59
2023-03-17T21:37:57.615Z,98624.59
2023-03-17T21:40:26.174Z,98629.25
2023-03-17T21:42:54.829Z,98622.94
2023-03-17T21:45:22.104Z,98618.84
2023-03-17T21:47:49.711Z,98622.97
2023-03-17T21:50:18.575Z,98623.25
2023-03-17T21:52:45.581Z,98625.16
2023-03-17T21:55:12.275Z,98626.00
2023-03-17T21:57:39.031Z,98625.16
2023-03-17T22:00:08.021Z,98630.06
2023-03-17T22:02:35.437Z,98624.31
2023-03-17T22:05:02.699Z,98622.13
2023-03-17T22:07:29.458Z,98625.72
2023-03-17T22:09:57.875Z,98622.41
2023-03-17T22:12:25.340Z,98623.53
2023-03-17T22:14:52.570Z,98627.91
2023-03-17T22:17:19.268Z,98624.63
2023-03-17T22:19:48.646Z,98626.28
2023-03-17T22:22:15.473Z,98632.03
2023-03-17T22:24:42.858Z,98626.00
2023-03-17T22:27:09.537Z,98632.59
2023-03-17T22:29:36.777Z,98626.31
2023-03-17T22:32:03.613Z,98630.69
2023-03-17T22:34:30.230Z,98635.06
2023-03-17T22:36:56.970Z,98626.03
2023-03-17T22:39:23.599Z,98632.91
2023-03-17T22:41:50.673Z,98624.13
2023-03-17T22:44:17.727Z,98630.16
2023-03-17T22:46:44.355Z,98629.09
2023-03-17T22:49:11.421Z,98626.59
2023-03-17T22:51:38.614Z,98631.25
2023-03-17T22:54:05.373Z,98625.25
2023-03-17T22:56:31.996Z,98637.31
2023-03-17T22:58:58.670Z,98630.72
2023-03-17T23:01:25.907Z,98635.13
2023-03-17T23:03:54.333Z,98642.78
2023-03-17T23:06:22.093Z,98634.31
2023-03-17T23:08:48.896Z,98636.75
2023-03-17T23:11:19.102Z,98631.84
2023-03-17T23:13:47.793Z,98629.09
2023-03-17T23:16:15.458Z,98634.00
2023-03-17T23:18:46.537Z,98640.56
2023-03-17T23:21:34.902Z,98649.59
2023-03-17T23:24:02.276Z,98640.28
2023-03-17T23:26:29.147Z,98645.50
2023-03-17T23:28:56.034Z,98644.69
2023-03-17T23:31:22.774Z,98641.66
2023-03-17T23:33:50.538Z,98646.59
2023-03-17T23:36:17.821Z,98642.78
2023-03-17T23:38:45.669Z,98651.56
2023-03-17T23:41:13.160Z,98644.44
2023-03-17T23:43:40.566Z,98637.88
2023-03-17T23:46:07.269Z,98645.53
2023-03-17T23:48:34.038Z,98650.19
2023-03-17T23:51:01.136Z,98651.56
2023-03-17T23:53:28.433Z,98644.16
2023-03-17T23:55:55.380Z,98645.28
2023-03-17T23:58:22.887Z,98646.91
